createdAt,value
2019-03-10T00:00:21.128Z,11.58
2019-03-10T00:01:21.117Z,11.58
2019-03-10T00:02:21.108Z,11.57
2019-03-10T00:03:21.182Z,11.57
2019-03-10T00:04:21.143Z,11.54
2019-03-10T00:05:21.116Z,11.54
2019-03-10T00:06:21.127Z,11.53
2019-03-10T00:07:21.105Z,11.51
2019-03-10T00:08:21.117Z,11.54
2019-03-10T00:09:21.162Z,11.48
2019-03-10T00:10:21.101Z,11.5
2019-03-10T00:11:21.109Z,11.5
2019-03-10T00:12:21.124Z,11.48
2019-03-10T00:13:21.110Z,11.47
2019-03-10T00:14:21.380Z,11.48
2019-03-10T00:15:21.085Z,11.47
2019-03-10T00:16:21.174Z,11.46
2019-03-10T00:17:21.100Z,11.46
2019-03-10T00:18:21.108Z,11.45
2019-03-10T00:19:21.107Z,11.45
2019-03-10T00:20:21.150Z,11.44
2019-03-10T00:21:21.106Z,11.47
2019-03-10T00:22:21.098Z,11.44
2019-03-10T00:23:21.077Z,11.44
2019-03-10T00:24:21.080Z,11.42
2019-03-10T00:25:21.154Z,11.42
2019-03-10T00:26:21.529Z,11.43
2019-03-10T00:27:21.123Z,11.4
2019-03-10T00:28:21.092Z,11.41
2019-03-10T00:29:21.096Z,11.4
2019-03-10T00:30:21.113Z,11.43
2019-03-10T00:31:21.069Z,11.43
2019-03-10T00:32:21.090Z,11.39
2019-03-10T00:33:21.147Z,11.39
2019-03-10T00:34:21.062Z,11.38
2019-03-10T00:35:21.093Z,11.38
2019-03-10T00:36:21.389Z,11.34
2019-03-10T00:37:21.080Z,11.36
2019-03-10T00:38:21.185Z,11.34
2019-03-10T00:39:21.069Z,11.33
2019-03-10T00:40:21.082Z,11.33
2019-03-10T00:41:21.062Z,11.32
2019-03-10T00:42:21.097Z,11.33
2019-03-10T00:43:21.055Z,11.31
2019-03-10T00:44:21.084Z,11.29
2019-03-10T00:45:21.083Z,11.31
2019-03-10T00:46:21.050Z,11.28
2019-03-10T00:47:21.057Z,11.28
2019-03-10T00:48:21.046Z,11.27
2019-03-10T00:49:21.068Z,11.27
2019-03-10T00:50:21.066Z,11.25
2019-03-10T00:51:21.081Z,11.25
2019-03-10T00:52:21.061Z,11.25
2019-03-10T00:53:21.059Z,11.24
2019-03-10T00:54:21.030Z,11.26
2019-03-10T00:55:21.064Z,11.21
2019-03-10T00:56:21.041Z,11.23
2019-03-10T00:57:21.046Z,11.22
2019-03-10T00:58:21.983Z,11.21
2019-03-10T00:59:21.058Z,11.21
2019-03-10T01:00:21.161Z,11.21
2019-03-10T01:01:21.048Z,11.21
2019-03-10T01:02:21.025Z,11.2
2019-03-10T01:03:21.026Z,11.2
2019-03-10T01:04:21.022Z,11.2
2019-03-10T01:05:21.060Z,11.21
2019-03-10T01:06:21.054Z,11.2
2019-03-10T01:07:21.053Z,11.2
2019-03-10T01:08:22.340Z,11.2
2019-03-10T01:09:21.048Z,11.2
2019-03-10T01:10:21.021Z,11.21
2019-03-10T01:11:21.029Z,11.18
2019-03-10T01:12:21.034Z,11.19
2019-03-10T01:13:21.044Z,11.18
2019-03-10T01:14:21.119Z,11.18
2019-03-10T01:15:21.043Z,11.18
2019-03-10T01:16:21.111Z,11.18
2019-03-10T01:17:21.086Z,11.19
2019-03-10T01:18:21.024Z,11.19
2019-03-10T01:19:21.015Z,11.23
2019-03-10T01:20:21.028Z,11.19
2019-03-10T01:21:21.064Z,11.21
2019-03-10T01:22:21.022Z,11.22
2019-03-10T01:23:21.010Z,11.21
2019-03-10T01:24:21.015Z,11.2
2019-03-10T01:25:21.028Z,11.19
2019-03-10T01:26:21.041Z,11.2
2019-03-10T01:27:21.055Z,11.2
2019-03-10T01:28:21.025Z,11.18
2019-03-10T01:29:21.014Z,11.19
2019-03-10T01:30:21.015Z,11.19
2019-03-10T01:31:21.009Z,11.19
2019-03-10T01:32:21.002Z,11.19
2019-03-10T01:33:21.076Z,11.21
2019-03-10T01:34:21.009Z,11.2
2019-03-10T01:35:20.997Z,11.21
2019-03-10T01:36:20.989Z,11.2
2019-03-10T01:37:21.009Z,11.2
2019-03-10T01:38:20.983Z,11.18
2019-03-10T01:39:21.040Z,11.2
2019-03-10T01:40:20.992Z,11.22
2019-03-10T01:41:21.001Z,11.21
2019-03-10T01:42:21.285Z,11.2
2019-03-10T01:43:20.977Z,11.2
2019-03-10T01:44:20.962Z,11.2
2019-03-10T01:45:20.992Z,11.19
2019-03-10T01:46:20.965Z,11.19
2019-03-10T01:47:20.992Z,11.16
2019-03-10T01:48:20.983Z,11.17
2019-03-10T01:49:20.976Z,11.16
2019-03-10T01:50:20.976Z,11.17
2019-03-10T01:51:20.969Z,11.14
2019-03-10T01:52:20.988Z,11.14
2019-03-10T01:53:26.272Z,11.14
2019-03-10T01:54:21.760Z,11.14
2019-03-10T01:55:21.005Z,11.13
2019-03-10T01:56:21.042Z,11.13
2019-03-10T01:57:20.962Z,11.12
2019-03-10T01:58:21.006Z,11.12
2019-03-10T01:59:21.023Z,11.12
2019-03-10T02:00:20.998Z,11.09
2019-03-10T02:01:20.944Z,11.11
2019-03-10T02:02:26.224Z,11.09
2019-03-10T02:03:20.966Z,11.1
2019-03-10T02:04:20.941Z,11.1
2019-03-10T02:05:20.956Z,11.08
2019-03-10T02:06:20.972Z,11.08
2019-03-10T02:07:20.993Z,11.08
2019-03-10T02:08:20.948Z,11.08
2019-03-10T02:09:20.952Z,11.08
2019-03-10T02:10:20.949Z,11.08
2019-03-10T02:11:20.968Z,11.1
2019-03-10T02:12:20.962Z,11.08
2019-03-10T02:13:20.953Z,11.1
2019-03-10T02:14:20.958Z,11.1
2019-03-10T02:15:20.952Z,11.11
2019-03-10T02:16:20.937Z,11.11
2019-03-10T02:17:20.958Z,11.11
2019-03-10T02:18:20.933Z,11.13
2019-03-10T02:19:20.996Z,11.12
2019-03-10T02:20:20.945Z,11.12
2019-03-10T02:21:20.930Z,11.12
2019-03-10T02:22:20.925Z,11.1
2019-03-10T02:23:20.930Z,11.09
2019-03-10T02:24:24.567Z,11.09
2019-03-10T02:25:21.017Z,11.09
2019-03-10T02:26:20.947Z,11.08
2019-03-10T02:27:20.944Z,11.07
2019-03-10T02:28:20.929Z,11.06
2019-03-10T02:29:21.005Z,11.07
2019-03-10T02:30:20.970Z,11.05
2019-03-10T02:31:20.934Z,11.03
2019-03-10T02:32:20.913Z,11.03
2019-03-10T02:33:20.914Z,11.02
2019-03-10T02:34:20.995Z,11.01
2019-03-10T02:35:20.938Z,11
2019-03-10T02:36:20.922Z,10.98
2019-03-10T02:37:20.928Z,10.97
2019-03-10T02:38:20.941Z,10.96
2019-03-10T02:39:20.913Z,10.95
2019-03-10T02:40:20.932Z,10.95
2019-03-10T02:41:20.929Z,10.95
2019-03-10T02:42:20.906Z,10.92
2019-03-10T02:43:20.955Z,10.93
2019-03-10T02:44:20.911Z,10.9
2019-03-10T02:45:20.922Z,10.91
2019-03-10T02:46:20.927Z,10.91
2019-03-10T02:47:22.367Z,10.89
2019-03-10T02:48:20.933Z,10.89
2019-03-10T02:49:20.936Z,10.88
2019-03-10T02:50:20.941Z,10.88
2019-03-10T02:51:21.037Z,10.84
2019-03-10T02:52:20.936Z,10.85
2019-03-10T02:53:20.967Z,10.84
2019-03-10T02:54:20.925Z,10.83
2019-03-10T02:55:20.988Z,10.81
2019-03-10T02:56:20.939Z,10.8
2019-03-10T02:57:20.918Z,10.79
2019-03-10T02:58:20.948Z,10.79
2019-03-10T02:59:20.936Z,10.77
2019-03-10T03:00:20.962Z,10.77
2019-03-10T03:01:20.951Z,10.75
2019-03-10T03:02:20.916Z,10.73
2019-03-10T03:03:20.885Z,10.73
2019-03-10T03:04:20.925Z,10.72
2019-03-10T03:05:20.912Z,10.68
2019-03-10T03:06:20.908Z,10.69
2019-03-10T03:07:20.931Z,10.69
2019-03-10T03:08:20.947Z,10.7
2019-03-10T03:09:20.896Z,10.67
2019-03-10T03:10:20.851Z,10.7
2019-03-10T03:11:20.864Z,10.67
2019-03-10T03:12:20.861Z,10.68
2019-03-10T03:13:20.908Z,10.68
2019-03-10T03:14:20.882Z,10.65
2019-03-10T03:15:20.860Z,10.66
2019-03-10T03:16:20.974Z,10.66
2019-03-10T03:17:20.904Z,10.66
2019-03-10T03:18:20.879Z,10.66
2019-03-10T03:19:20.865Z,10.65
2019-03-10T03:20:20.932Z,10.68
2019-03-10T03:21:20.880Z,10.65
2019-03-10T03:22:20.917Z,10.65
2019-03-10T03:23:20.840Z,10.65
2019-03-10T03:24:20.896Z,10.64
2019-03-10T03:25:20.865Z,10.64
2019-03-10T03:26:20.865Z,10.63
2019-03-10T03:27:20.852Z,10.63
2019-03-10T03:28:20.907Z,10.63
2019-03-10T03:29:20.910Z,10.61
2019-03-10T03:30:21.085Z,10.59
2019-03-10T03:31:20.938Z,10.59
2019-03-10T03:32:21.020Z,10.59
2019-03-10T03:33:21.005Z,10.59
2019-03-10T03:34:20.904Z,10.58
2019-03-10T03:35:20.860Z,10.58
2019-03-10T03:36:20.955Z,10.58
2019-03-10T03:37:20.927Z,10.57
2019-03-10T03:38:20.893Z,10.57
2019-03-10T03:39:20.859Z,10.55
2019-03-10T03:40:20.899Z,10.57
2019-03-10T03:41:20.845Z,10.56
2019-03-10T03:42:20.846Z,10.54
2019-03-10T03:43:20.811Z,10.55
2019-03-10T03:44:20.865Z,10.52
2019-03-10T03:45:20.842Z,10.52
2019-03-10T03:46:20.889Z,10.52
2019-03-10T03:47:20.881Z,10.5
2019-03-10T03:48:20.830Z,10.5
2019-03-10T03:49:20.834Z,10.49
2019-03-10T03:50:20.845Z,10.45
2019-03-10T03:51:20.864Z,10.45
2019-03-10T03:52:21.130Z,10.44
2019-03-10T03:53:20.945Z,10.47
2019-03-10T03:54:20.868Z,10.46
2019-03-10T03:55:20.823Z,10.47
2019-03-10T03:56:20.849Z,10.47
2019-03-10T03:57:20.828Z,10.46
2019-03-10T03:58:20.808Z,10.44
2019-03-10T03:59:20.812Z,10.45
2019-03-10T04:00:20.839Z,10.42
2019-03-10T04:01:20.812Z,10.42
2019-03-10T04:02:20.807Z,10.43
2019-03-10T04:03:20.795Z,10.4
2019-03-10T04:04:20.860Z,10.41
2019-03-10T04:05:20.909Z,10.39
2019-03-10T04:06:20.969Z,10.37
2019-03-10T04:07:20.977Z,10.35
2019-03-10T04:08:20.784Z,10.35
2019-03-10T04:09:20.828Z,10.33
2019-03-10T04:10:20.847Z,10.34
2019-03-10T04:11:20.796Z,10.3
2019-03-10T04:12:20.771Z,10.3
2019-03-10T04:13:21.074Z,10.3
2019-03-10T04:14:21.129Z,10.29
2019-03-10T04:15:20.782Z,10.23
2019-03-10T04:16:20.858Z,10.21
2019-03-10T04:17:20.794Z,10.2
2019-03-10T04:18:20.843Z,10.21
2019-03-10T04:19:20.791Z,10.18
2019-03-10T04:20:20.782Z,10.17
2019-03-10T04:21:20.772Z,10.17
2019-03-10T04:22:20.754Z,10.16
2019-03-10T04:23:20.780Z,10.15
2019-03-10T04:24:20.761Z,10.11
2019-03-10T04:25:20.865Z,10.11
2019-03-10T04:26:20.782Z,10.11
2019-03-10T04:27:20.781Z,10.12
2019-03-10T04:28:20.770Z,10.09
2019-03-10T04:29:22.159Z,10.09
2019-03-10T04:30:20.752Z,10.09
2019-03-10T04:31:20.768Z,10.05
2019-03-10T04:32:20.738Z,10.04
2019-03-10T04:33:20.744Z,10.03
2019-03-10T04:34:20.748Z,10.01
2019-03-10T04:35:20.915Z,10.02
2019-03-10T04:36:20.780Z,9.99
2019-03-10T04:37:20.764Z,9.97
2019-03-10T04:38:20.782Z,9.96
2019-03-10T04:39:20.831Z,9.95
2019-03-10T04:40:20.766Z,9.96
2019-03-10T04:41:20.734Z,9.95
2019-03-10T04:42:20.755Z,9.92
2019-03-10T04:43:20.837Z,9.91
2019-03-10T04:44:20.733Z,9.89
2019-03-10T04:45:20.768Z,9.9
2019-03-10T04:46:20.743Z,9.89
2019-03-10T04:47:20.731Z,9.86
2019-03-10T04:48:20.729Z,9.86
2019-03-10T04:49:20.746Z,9.84
2019-03-10T04:50:20.722Z,9.84
2019-03-10T04:51:20.721Z,9.82
2019-03-10T04:52:20.754Z,9.81
2019-03-10T04:53:20.730Z,9.8
2019-03-10T04:54:20.726Z,9.81
2019-03-10T04:55:20.749Z,9.8
2019-03-10T04:56:20.724Z,9.79
2019-03-10T04:57:20.718Z,9.79
2019-03-10T04:58:20.720Z,9.77
2019-03-10T04:59:20.698Z,9.76
2019-03-10T05:00:21.003Z,9.72
2019-03-10T05:01:20.744Z,9.72
2019-03-10T05:02:20.733Z,9.7
2019-03-10T05:03:20.718Z,9.69
2019-03-10T05:04:20.732Z,9.67
2019-03-10T05:05:20.742Z,9.67
2019-03-10T05:06:20.882Z,9.65
2019-03-10T05:07:20.866Z,9.67
2019-03-10T05:08:20.691Z,9.64
2019-03-10T05:09:20.698Z,9.64
2019-03-10T05:10:20.691Z,9.64
2019-03-10T05:11:20.698Z,9.63
2019-03-10T05:12:20.704Z,9.63
2019-03-10T05:13:20.693Z,9.63
2019-03-10T05:14:20.684Z,9.61
2019-03-10T05:15:20.788Z,9.6
2019-03-10T05:16:20.817Z,9.58
2019-03-10T05:17:20.689Z,9.61
2019-03-10T05:18:20.689Z,9.58
2019-03-10T05:19:20.681Z,9.6
2019-03-10T05:20:20.762Z,9.57
2019-03-10T05:21:20.704Z,9.56
2019-03-10T05:22:20.671Z,9.56
2019-03-10T05:23:20.679Z,9.56
2019-03-10T05:24:20.730Z,9.54
2019-03-10T05:25:20.667Z,9.56
2019-03-10T05:26:20.704Z,9.55
2019-03-10T05:27:20.690Z,9.53
2019-03-10T05:28:20.770Z,9.5
2019-03-10T05:29:20.709Z,9.49
2019-03-10T05:30:20.685Z,9.48
2019-03-10T05:31:20.795Z,9.49
2019-03-10T05:32:20.668Z,9.49
2019-03-10T05:33:20.673Z,9.49
2019-03-10T05:34:20.676Z,9.5
2019-03-10T05:35:20.690Z,9.49
2019-03-10T05:36:20.669Z,9.49
2019-03-10T05:37:20.664Z,9.5
2019-03-10T05:38:20.666Z,9.49
2019-03-10T05:39:20.648Z,9.5
2019-03-10T05:40:20.673Z,9.48
2019-03-10T05:41:20.673Z,9.48
2019-03-10T05:42:20.677Z,9.43
2019-03-10T05:43:20.665Z,9.43
2019-03-10T05:44:20.723Z,9.44
2019-03-10T05:45:20.654Z,9.43
2019-03-10T05:46:20.661Z,9.44
2019-03-10T05:47:20.667Z,9.43
2019-03-10T05:48:20.661Z,9.43
2019-03-10T05:49:20.671Z,9.42
2019-03-10T05:50:20.660Z,9.42
2019-03-10T05:51:20.646Z,9.42
2019-03-10T05:52:20.634Z,9.41
2019-03-10T05:53:20.651Z,9.41
2019-03-10T05:54:20.723Z,9.38
2019-03-10T05:55:20.666Z,9.4
2019-03-10T05:56:20.618Z,9.37
2019-03-10T05:57:20.646Z,9.38
2019-03-10T05:58:20.634Z,9.36
2019-03-10T05:59:20.674Z,9.36
2019-03-10T06:00:20.691Z,9.37
2019-03-10T06:01:20.641Z,9.32
2019-03-10T06:02:20.631Z,9.35
2019-03-10T06:03:20.649Z,9.36
2019-03-10T06:04:20.651Z,9.36
2019-03-10T06:05:20.647Z,9.32
2019-03-10T06:06:20.654Z,9.34
2019-03-10T06:07:20.615Z,9.29
2019-03-10T06:08:20.691Z,9.31
2019-03-10T06:09:20.633Z,9.3
2019-03-10T06:10:20.624Z,9.28
2019-03-10T06:11:20.707Z,9.29
2019-03-10T06:12:20.688Z,9.29
2019-03-10T06:13:20.648Z,9.27
2019-03-10T06:14:20.653Z,9.29
2019-03-10T06:15:20.695Z,9.29
2019-03-10T06:16:20.623Z,9.28
2019-03-10T06:17:21.911Z,9.24
2019-03-10T06:18:20.605Z,9.21
2019-03-10T06:19:20.766Z,9.23
2019-03-10T06:20:20.618Z,9.2
2019-03-10T06:21:20.662Z,9.22
2019-03-10T06:22:20.662Z,9.23
2019-03-10T06:23:20.642Z,9.21
2019-03-10T06:24:20.676Z,9.22
2019-03-10T06:25:20.631Z,9.2
2019-03-10T06:26:20.602Z,9.19
2019-03-10T06:27:20.609Z,9.19
2019-03-10T06:28:20.624Z,9.17
2019-03-10T06:29:20.645Z,9.18
2019-03-10T06:30:20.607Z,9.18
2019-03-10T06:31:20.662Z,9.21
2019-03-10T06:32:20.622Z,9.2
2019-03-10T06:33:20.725Z,9.19
2019-03-10T06:34:20.804Z,9.18
2019-03-10T06:35:20.595Z,9.16
2019-03-10T06:36:20.601Z,9.18
2019-03-10T06:37:20.675Z,9.17
2019-03-10T06:38:20.712Z,9.18
2019-03-10T06:39:20.585Z,9.17
2019-03-10T06:40:32.887Z,9.16
2019-03-10T06:41:20.613Z,9.17
2019-03-10T06:42:20.587Z,9.16
2019-03-10T06:43:20.584Z,9.15
2019-03-10T06:44:21.470Z,9.18
2019-03-10T06:45:20.580Z,9.17
2019-03-10T06:46:20.589Z,9.18
2019-03-10T06:47:20.562Z,9.2
2019-03-10T06:48:20.578Z,9.15
2019-03-10T06:49:20.561Z,9.17
2019-03-10T06:50:20.612Z,9.15
2019-03-10T06:51:20.574Z,9.17
2019-03-10T06:52:20.599Z,9.17
2019-03-10T06:53:20.560Z,9.18
2019-03-10T06:54:20.573Z,9.18
2019-03-10T06:55:20.616Z,9.18
2019-03-10T06:56:20.561Z,9.18
2019-03-10T06:57:20.573Z,9.17
2019-03-10T06:58:20.553Z,9.17
2019-03-10T06:59:20.581Z,9.17
2019-03-10T07:00:20.559Z,9.16
2019-03-10T07:01:20.577Z,9.16
2019-03-10T07:02:20.600Z,9.17
2019-03-10T07:03:20.571Z,9.17
2019-03-10T07:04:20.562Z,9.18
2019-03-10T07:05:20.568Z,9.18
2019-03-10T07:06:20.550Z,9.17
2019-03-10T07:07:20.553Z,9.16
2019-03-10T07:08:20.615Z,9.18
2019-03-10T07:09:20.574Z,9.18
2019-03-10T07:10:20.576Z,9.2
2019-03-10T07:11:20.538Z,9.18
2019-03-10T07:12:20.529Z,9.19
2019-03-10T07:13:20.544Z,9.19
2019-03-10T07:14:20.533Z,9.18
2019-03-10T07:15:20.549Z,9.21
2019-03-10T07:16:20.546Z,9.2
2019-03-10T07:17:20.782Z,9.23
2019-03-10T07:18:20.549Z,9.23
2019-03-10T07:19:20.545Z,9.23
2019-03-10T07:20:20.523Z,9.27
2019-03-10T07:21:20.558Z,9.25
2019-03-10T07:22:20.533Z,9.24
2019-03-10T07:23:20.522Z,9.28
2019-03-10T07:24:20.545Z,9.29
2019-03-10T07:25:20.552Z,9.29
2019-03-10T07:26:20.568Z,9.3
2019-03-10T07:27:20.674Z,9.31
2019-03-10T07:28:20.522Z,9.34
2019-03-10T07:29:20.589Z,9.33
2019-03-10T07:30:20.508Z,9.35
2019-03-10T07:31:20.504Z,9.36
2019-03-10T07:32:20.521Z,9.4
2019-03-10T07:33:20.591Z,9.39
2019-03-10T07:34:20.547Z,9.42
2019-03-10T07:35:20.507Z,9.44
2019-03-10T07:36:20.516Z,9.49
2019-03-10T07:37:20.513Z,9.5
2019-03-10T07:38:20.493Z,9.53
2019-03-10T07:39:20.545Z,9.56
2019-03-10T07:40:20.487Z,9.61
2019-03-10T07:41:20.524Z,9.64
2019-03-10T07:42:20.552Z,9.69
2019-03-10T07:43:20.528Z,9.72
2019-03-10T07:44:20.501Z,9.78
2019-03-10T07:45:20.486Z,9.81
2019-03-10T07:46:20.488Z,9.85
2019-03-10T07:47:20.552Z,9.87
2019-03-10T07:48:20.487Z,9.91
2019-03-10T07:49:20.577Z,9.97
2019-03-10T07:50:20.502Z,9.97
2019-03-10T07:51:20.477Z,10.01
2019-03-10T07:52:21.097Z,10.01
2019-03-10T07:53:20.474Z,10.03
2019-03-10T07:54:20.540Z,10.07
2019-03-10T07:55:20.452Z,10.06
2019-03-10T07:56:20.525Z,10.11
2019-03-10T07:57:20.474Z,10.12
2019-03-10T07:58:20.458Z,10.16
2019-03-10T07:59:20.564Z,10.16
2019-03-10T08:00:20.477Z,10.2
2019-03-10T08:01:20.565Z,10.23
2019-03-10T08:02:20.467Z,10.24
2019-03-10T08:03:20.468Z,10.28
2019-03-10T08:04:20.469Z,10.28
2019-03-10T08:05:20.495Z,10.28
2019-03-10T08:06:20.472Z,10.28
2019-03-10T08:07:20.491Z,10.33
2019-03-10T08:08:20.497Z,10.31
2019-03-10T08:09:20.503Z,10.33
2019-03-10T08:10:20.503Z,10.37
2019-03-10T08:11:20.457Z,10.4
2019-03-10T08:12:20.459Z,10.4
2019-03-10T08:13:20.477Z,10.42
2019-03-10T08:14:20.485Z,10.44
2019-03-10T08:15:20.556Z,10.47
2019-03-10T08:16:20.483Z,10.48
2019-03-10T08:17:20.535Z,10.49
2019-03-10T08:18:20.497Z,10.54
2019-03-10T08:19:20.447Z,10.59
2019-03-10T08:20:20.467Z,10.57
2019-03-10T08:21:20.465Z,10.6
2019-03-10T08:22:20.657Z,10.62
2019-03-10T08:23:20.508Z,10.65
2019-03-10T08:24:20.478Z,10.65
2019-03-10T08:25:20.493Z,10.67
2019-03-10T08:26:20.450Z,10.67
2019-03-10T08:27:20.462Z,10.73
2019-03-10T08:28:20.843Z,10.73
2019-03-10T08:29:20.494Z,10.81
2019-03-10T08:30:20.430Z,10.84
2019-03-10T08:31:20.440Z,10.81
2019-03-10T08:32:20.444Z,10.85
2019-03-10T08:33:20.459Z,10.85
2019-03-10T08:34:20.465Z,10.85
2019-03-10T08:35:20.433Z,10.9
2019-03-10T08:36:20.425Z,10.91
2019-03-10T08:37:20.418Z,10.9
2019-03-10T08:38:20.424Z,10.89
2019-03-10T08:39:20.443Z,10.92
2019-03-10T08:40:20.424Z,10.97
2019-03-10T08:41:20.424Z,10.97
2019-03-10T08:42:21.194Z,10.97
2019-03-10T08:43:20.416Z,11
2019-03-10T08:44:20.468Z,10.98
2019-03-10T08:45:20.429Z,11.03
2019-03-10T08:46:20.411Z,11.04
2019-03-10T08:47:20.456Z,11.06
2019-03-10T08:48:20.427Z,11.1
2019-03-10T08:49:20.421Z,11.11
2019-03-10T08:50:20.421Z,11.15
2019-03-10T08:51:20.398Z,11.16
2019-03-10T08:52:20.432Z,11.18
2019-03-10T08:53:20.414Z,11.2
2019-03-10T08:54:20.406Z,11.21
2019-03-10T08:55:20.392Z,11.23
2019-03-10T08:56:20.399Z,11.28
2019-03-10T08:57:20.398Z,11.32
2019-03-10T08:58:20.433Z,11.33
2019-03-10T08:59:20.429Z,11.34
2019-03-10T09:00:20.389Z,11.34
2019-03-10T09:01:20.400Z,11.37
2019-03-10T09:02:20.413Z,11.36
2019-03-10T09:03:20.383Z,11.38
2019-03-10T09:04:20.389Z,11.39
2019-03-10T09:05:20.397Z,11.42
2019-03-10T09:06:20.681Z,11.46
2019-03-10T09:07:20.366Z,11.51
2019-03-10T09:08:20.410Z,11.53
2019-03-10T09:09:20.463Z,11.54
2019-03-10T09:10:20.398Z,11.61
2019-03-10T09:11:20.366Z,11.64
2019-03-10T09:12:20.386Z,11.74
2019-03-10T09:13:20.369Z,11.73
2019-03-10T09:14:20.383Z,11.73
2019-03-10T09:15:20.398Z,11.75
2019-03-10T09:16:20.349Z,11.75
2019-03-10T09:17:20.359Z,11.77
2019-03-10T09:18:20.449Z,11.83
2019-03-10T09:19:20.382Z,11.83
2019-03-10T09:20:20.375Z,11.85
2019-03-10T09:21:20.359Z,11.87
2019-03-10T09:22:20.390Z,11.9
2019-03-10T09:23:20.377Z,11.89
2019-03-10T09:24:20.408Z,11.87
2019-03-10T09:25:20.390Z,11.91
2019-03-10T09:26:20.369Z,11.91
2019-03-10T09:27:20.394Z,11.94
2019-03-10T09:28:20.554Z,11.95
2019-03-10T09:29:20.380Z,11.96
2019-03-10T09:30:20.359Z,11.97
2019-03-10T09:31:20.364Z,11.99
2019-03-10T09:32:20.379Z,11.98
2019-03-10T09:33:20.458Z,12.02
2019-03-10T09:34:20.394Z,12.03
2019-03-10T09:35:20.365Z,12.01
2019-03-10T09:36:20.423Z,12.01
2019-03-10T09:37:20.377Z,12.01
2019-03-10T09:38:20.398Z,12.02
2019-03-10T09:39:20.421Z,12.02
2019-03-10T09:40:20.339Z,12.02
2019-03-10T09:41:20.368Z,12.03
2019-03-10T09:42:20.360Z,12.03
2019-03-10T09:43:20.348Z,12.05
2019-03-10T09:44:20.385Z,12.09
2019-03-10T09:45:20.380Z,12.08
2019-03-10T09:46:20.348Z,12.1
2019-03-10T09:47:20.400Z,12.11
2019-03-10T09:48:20.327Z,12.13
2019-03-10T09:49:20.586Z,12.13
2019-03-10T09:50:20.423Z,12.15
2019-03-10T09:51:20.338Z,12.2
2019-03-10T09:52:20.366Z,12.23
2019-03-10T09:53:20.448Z,12.26
2019-03-10T09:54:20.409Z,12.28
2019-03-10T09:55:20.337Z,12.27
2019-03-10T09:56:20.344Z,12.33
2019-03-10T09:57:20.373Z,12.33
2019-03-10T09:58:20.356Z,12.37
2019-03-10T09:59:20.328Z,12.44
2019-03-10T10:00:20.370Z,12.47
2019-03-10T10:01:20.429Z,12.5
2019-03-10T10:02:20.461Z,12.51
2019-03-10T10:03:20.431Z,12.51
2019-03-10T10:04:20.347Z,12.5
2019-03-10T10:05:20.307Z,12.54
2019-03-10T10:06:20.334Z,12.55
2019-03-10T10:07:20.323Z,12.52
2019-03-10T10:08:20.327Z,12.52
2019-03-10T10:09:20.352Z,12.54
2019-03-10T10:10:20.336Z,12.55
2019-03-10T10:11:20.345Z,12.56
2019-03-10T10:12:20.763Z,12.56
2019-03-10T10:13:20.375Z,12.58
2019-03-10T10:14:20.337Z,12.6
2019-03-10T10:15:20.316Z,12.63
2019-03-10T10:16:20.342Z,12.63
2019-03-10T10:17:20.343Z,12.66
2019-03-10T10:18:20.334Z,12.71
2019-03-10T10:19:20.303Z,12.71
2019-03-10T10:20:20.325Z,12.72
2019-03-10T10:21:20.311Z,12.76
2019-03-10T10:22:20.346Z,12.76
2019-03-10T10:23:20.310Z,12.83
2019-03-10T10:24:20.315Z,12.83
2019-03-10T10:25:20.312Z,12.83
2019-03-10T10:26:20.301Z,12.82
2019-03-10T10:27:20.566Z,12.84
2019-03-10T10:28:20.486Z,12.87
2019-03-10T10:29:20.437Z,12.86
2019-03-10T10:30:20.428Z,12.85
2019-03-10T10:31:20.500Z,12.86
2019-03-10T10:32:20.422Z,12.87
2019-03-10T10:33:20.543Z,12.91
2019-03-10T10:34:20.360Z,12.94
2019-03-10T10:35:20.269Z,12.95
2019-03-10T10:36:20.286Z,12.98
2019-03-10T10:37:20.301Z,13
2019-03-10T10:38:20.265Z,13
2019-03-10T10:39:20.342Z,13.04
2019-03-10T10:40:20.286Z,13.06
2019-03-10T10:41:20.307Z,13.09
2019-03-10T10:42:20.271Z,13.07
2019-03-10T10:43:20.241Z,13.09
2019-03-10T10:44:20.248Z,13.16
2019-03-10T10:45:20.271Z,13.22
2019-03-10T10:46:20.285Z,13.21
2019-03-10T10:47:20.286Z,13.22
2019-03-10T10:48:20.261Z,13.22
2019-03-10T10:49:20.369Z,13.27
2019-03-10T10:50:20.467Z,13.26
2019-03-10T10:51:20.374Z,13.27
2019-03-10T10:52:20.462Z,13.28
2019-03-10T10:53:21.977Z,13.25
2019-03-10T10:54:20.391Z,13.24
2019-03-10T10:55:20.551Z,13.25
2019-03-10T10:56:20.337Z,13.24
2019-03-10T10:57:20.479Z,13.26
2019-03-10T10:58:20.269Z,13.27
2019-03-10T10:59:20.252Z,13.27
2019-03-10T11:00:20.356Z,13.23
2019-03-10T11:01:20.355Z,13.21
2019-03-10T11:02:20.332Z,13.21
2019-03-10T11:03:20.294Z,13.16
2019-03-10T11:04:20.260Z,13.18
2019-03-10T11:05:20.395Z,13.19
2019-03-10T11:06:20.303Z,13.2
2019-03-10T11:07:20.227Z,13.2
2019-03-10T11:08:20.643Z,13.2
2019-03-10T11:09:20.271Z,13.21
2019-03-10T11:10:20.257Z,13.22
2019-03-10T11:11:20.261Z,13.21
2019-03-10T11:12:20.308Z,13.23
2019-03-10T11:13:20.299Z,13.26
2019-03-10T11:14:20.250Z,13.26
2019-03-10T11:15:20.262Z,13.3
2019-03-10T11:16:20.859Z,13.32
2019-03-10T11:17:20.313Z,13.31
2019-03-10T11:18:20.284Z,13.32
2019-03-10T11:19:20.258Z,13.37
2019-03-10T11:20:20.254Z,13.39
2019-03-10T11:21:20.227Z,13.39
2019-03-10T11:22:20.258Z,13.4
2019-03-10T11:23:20.252Z,13.41
2019-03-10T11:24:20.235Z,13.39
2019-03-10T11:25:20.208Z,13.38
2019-03-10T11:26:20.202Z,13.42
2019-03-10T11:27:20.250Z,13.39
2019-03-10T11:28:20.211Z,13.38
2019-03-10T11:29:20.361Z,13.35
2019-03-10T11:30:20.212Z,13.32
2019-03-10T11:31:20.777Z,13.32
2019-03-10T11:32:20.230Z,13.33
2019-03-10T11:33:20.337Z,13.34
2019-03-10T11:34:20.222Z,13.34
2019-03-10T11:35:20.197Z,13.31
2019-03-10T11:36:20.312Z,13.3
2019-03-10T11:37:20.640Z,13.3
2019-03-10T11:38:20.281Z,13.23
2019-03-10T11:39:20.273Z,13.25
2019-03-10T11:40:20.284Z,13.26
2019-03-10T11:41:20.234Z,13.26
2019-03-10T11:42:20.211Z,13.26
2019-03-10T11:43:23.204Z,13.26
2019-03-10T11:44:20.287Z,13.27
2019-03-10T11:45:20.237Z,13.27
2019-03-10T11:46:20.213Z,13.26
2019-03-10T11:47:20.224Z,13.26
2019-03-10T11:48:20.188Z,13.27
2019-03-10T11:49:20.243Z,13.3
2019-03-10T11:50:20.215Z,13.3
2019-03-10T11:51:20.252Z,13.27
2019-03-10T11:52:20.186Z,13.3
2019-03-10T11:53:20.192Z,13.3
2019-03-10T11:54:20.221Z,13.32
2019-03-10T11:55:20.997Z,13.31
2019-03-10T11:56:20.363Z,13.31
2019-03-10T11:57:20.247Z,13.28
2019-03-10T11:58:20.285Z,13.3
2019-03-10T11:59:20.272Z,13.29
2019-03-10T12:00:20.308Z,13.29
2019-03-10T12:01:20.165Z,13.3
2019-03-10T12:02:20.174Z,13.27
2019-03-10T12:03:20.166Z,13.29
2019-03-10T12:04:20.191Z,13.31
2019-03-10T12:05:20.173Z,13.31
2019-03-10T12:06:20.182Z,13.32
2019-03-10T12:07:20.185Z,13.32
2019-03-10T12:08:20.161Z,13.33
2019-03-10T12:09:20.230Z,13.38
2019-03-10T12:10:22.061Z,13.39
2019-03-10T12:11:20.197Z,13.41
2019-03-10T12:12:20.168Z,13.45
2019-03-10T12:13:20.168Z,13.45
2019-03-10T12:14:20.144Z,13.47
2019-03-10T12:15:20.190Z,13.52
2019-03-10T12:16:20.150Z,13.53
2019-03-10T12:17:20.230Z,13.53
2019-03-10T12:18:20.220Z,13.55
2019-03-10T12:19:20.145Z,13.59
2019-03-10T12:20:20.158Z,13.58
2019-03-10T12:21:20.504Z,13.61
2019-03-10T12:22:20.206Z,13.64
2019-03-10T12:23:20.204Z,13.64
2019-03-10T12:24:20.203Z,13.66
2019-03-10T12:25:20.141Z,13.71
2019-03-10T12:26:20.138Z,13.75
2019-03-10T12:27:20.301Z,13.8
2019-03-10T12:28:20.139Z,13.91
2019-03-10T12:29:20.200Z,13.93
2019-03-10T12:30:20.124Z,14
2019-03-10T12:31:20.154Z,14.05
2019-03-10T12:32:20.136Z,14.1
2019-03-10T12:33:20.330Z,14.19
2019-03-10T12:34:20.128Z,14.32
2019-03-10T12:35:20.129Z,14.38
2019-03-10T12:36:20.149Z,14.42
2019-03-10T12:37:20.144Z,14.44
2019-03-10T12:38:20.151Z,14.37
2019-03-10T12:39:20.165Z,14.4
2019-03-10T12:40:21.104Z,14.45
2019-03-10T12:41:20.140Z,14.49
2019-03-10T12:42:20.232Z,14.53
2019-03-10T12:43:20.133Z,14.51
2019-03-10T12:44:20.087Z,14.5
2019-03-10T12:45:20.119Z,14.51
2019-03-10T12:46:20.182Z,14.56
2019-03-10T12:47:20.082Z,14.63
2019-03-10T12:48:20.113Z,14.72
2019-03-10T12:49:20.112Z,14.74
2019-03-10T12:50:20.145Z,14.72
2019-03-10T12:51:20.113Z,14.74
2019-03-10T12:52:20.137Z,14.83
2019-03-10T12:53:20.097Z,14.86
2019-03-10T12:54:20.095Z,14.83
2019-03-10T12:55:20.076Z,14.81
2019-03-10T12:56:20.170Z,14.82
2019-03-10T12:57:20.078Z,14.79
2019-03-10T12:58:20.081Z,14.86
2019-03-10T12:59:20.095Z,14.92
2019-03-10T13:00:20.093Z,14.9
2019-03-10T13:01:20.091Z,14.94
2019-03-10T13:02:20.105Z,14.95